createdAt,value
2019-01-16T00:01:42.676Z,2.40
2019-01-16T00:06:22.740Z,3.17
2019-01-16T00:10:59.937Z,3.30
2019-01-16T00:15:29.759Z,2.73
2019-01-16T00:20:00.709Z,2.80
2019-01-16T00:24:34.935Z,3.07
2019-01-16T00:28:58.325Z,3.10
2019-01-16T00:33:19.852Z,2.50
2019-01-16T00:37:50.788Z,2.87
2019-01-16T00:42:20.918Z,2.87
2019-01-16T00:46:51.975Z,2.97
2019-01-16T00:51:33.876Z,2.97
2019-01-16T00:56:07.897Z,2.77
2019-01-16T01:00:51.240Z,2.77
2019-01-16T01:05:18.946Z,3.23
2019-01-16T01:09:56.315Z,2.87
2019-01-16T01:14:25.729Z,2.33
2019-01-16T01:18:49.334Z,2.87
2019-01-16T01:23:08.478Z,2.80
2019-01-16T01:27:42.606Z,2.80
2019-01-16T01:32:23.827Z,2.60
2019-01-16T01:36:53.830Z,2.50
2019-01-16T01:41:23.954Z,2.70
2019-01-16T01:46:01.455Z,2.50
2019-01-16T01:50:30.258Z,3.00
2019-01-16T01:55:04.379Z,2.83
2019-01-16T01:59:34.206Z,2.80
2019-01-16T02:04:08.328Z,3.20
2019-01-16T02:08:37.741Z,3.33
2019-01-16T02:13:07.871Z,2.70
2019-01-16T02:17:48.038Z,3.03
2019-01-16T02:22:31.639Z,2.57
2019-01-16T02:27:01.612Z,2.80
2019-01-16T02:31:30.327Z,2.90
2019-01-16T02:36:04.332Z,2.90
2019-01-16T02:40:35.690Z,2.80
2019-01-16T02:45:14.087Z,2.57
2019-01-16T02:49:39.696Z,2.37
2019-01-16T02:54:09.575Z,2.63
2019-01-16T02:58:43.903Z,2.30
2019-01-16T03:03:17.821Z,2.70
2019-01-16T03:07:41.344Z,2.47
2019-01-16T03:12:12.655Z,2.43
2019-01-16T03:16:43.709Z,2.70
2019-01-16T03:21:14.964Z,2.30
2019-01-16T03:25:55.028Z,2.50
2019-01-16T03:30:26.901Z,2.50
2019-01-16T03:34:49.726Z,2.57
2019-01-16T03:39:23.986Z,2.27
2019-01-16T03:43:54.220Z,2.47
2019-01-16T03:48:28.550Z,2.60
2019-01-16T03:53:11.995Z,2.17
2019-01-16T03:57:46.321Z,2.17
2019-01-16T04:02:16.860Z,2.10
2019-01-16T04:07:06.550Z,2.70
2019-01-16T04:11:40.827Z,2.63
2019-01-16T04:16:15.212Z,2.57
2019-01-16T04:20:53.022Z,2.70
2019-01-16T04:25:29.192Z,2.50
2019-01-16T04:30:02.139Z,2.93
2019-01-16T04:34:36.314Z,2.73
2019-01-16T04:39:04.512Z,2.83
2019-01-16T04:43:53.879Z,3.00
2019-01-16T04:48:40.292Z,3.20
2019-01-16T04:53:11.551Z,2.70
2019-01-16T04:57:45.776Z,3.27
2019-01-16T05:02:15.702Z,3.30
2019-01-16T05:06:40.927Z,2.97
2019-01-16T05:11:15.057Z,3.60
2019-01-16T05:15:45.071Z,2.80
2019-01-16T05:20:31.800Z,2.87
2019-01-16T05:24:52.966Z,3.00
2019-01-16T05:29:24.069Z,2.87
2019-01-16T05:33:53.991Z,3.10
2019-01-16T05:38:20.797Z,3.13
2019-01-16T05:42:58.147Z,2.73
2019-01-16T05:47:38.310Z,2.40
2019-01-16T05:52:08.134Z,2.77
2019-01-16T05:56:35.653Z,2.97
2019-01-16T06:01:06.962Z,3.00
2019-01-16T06:05:38.769Z,3.57
2019-01-16T06:10:22.482Z,2.97
2019-01-16T06:14:53.635Z,3.30
2019-01-16T06:19:23.767Z,3.10
2019-01-16T06:23:53.588Z,3.27
2019-01-16T06:28:23.924Z,3.00
2019-01-16T06:33:01.838Z,2.50
2019-01-16T06:37:33.402Z,2.53
2019-01-16T06:42:05.855Z,2.60
2019-01-16T06:46:37.545Z,2.57
2019-01-16T06:51:04.639Z,3.17
2019-01-16T06:55:30.025Z,2.70
2019-01-16T07:00:01.387Z,2.43
2019-01-16T07:04:38.480Z,3.00
2019-01-16T07:09:08.301Z,2.90
2019-01-16T07:13:57.786Z,3.00
2019-01-16T07:18:26.315Z,3.13
2019-01-16T07:23:09.347Z,2.67
2019-01-16T07:27:40.468Z,2.70
2019-01-16T07:32:14.899Z,3.00
2019-01-16T07:36:51.789Z,2.40
2019-01-16T07:41:21.714Z,2.70
2019-01-16T07:46:04.542Z,3.27
2019-01-16T07:50:34.365Z,3.10
2019-01-16T07:55:05.315Z,2.87
2019-01-16T07:59:35.652Z,2.67
2019-01-16T08:04:19.401Z,2.47
2019-01-16T08:08:44.422Z,2.80
2019-01-16T08:13:18.945Z,2.67
2019-01-16T08:18:02.081Z,2.53
2019-01-16T08:22:31.801Z,2.90
2019-01-16T08:26:59.710Z,2.40
2019-01-16T08:31:30.836Z,2.40
2019-01-16T08:36:03.765Z,2.37
2019-01-16T08:40:47.072Z,2.63
2019-01-16T08:45:16.587Z,2.37
2019-01-16T08:49:45.094Z,2.63
2019-01-16T08:54:25.245Z,3.27
2019-01-16T08:58:59.575Z,1.93
2019-01-16T09:03:36.671Z,2.10
2019-01-16T09:08:19.907Z,1.83
2019-01-16T09:12:51.199Z,2.07
2019-01-16T09:17:21.191Z,2.10
2019-01-16T09:22:04.534Z,2.07
2019-01-16T09:26:34.153Z,1.90
2019-01-16T09:31:05.408Z,1.83
2019-01-16T09:35:40.059Z,2.03
2019-01-16T09:40:29.938Z,1.60
2019-01-16T09:45:10.208Z,2.43
2019-01-16T09:49:55.526Z,2.17
2019-01-16T09:54:29.616Z,2.13
2019-01-16T09:59:00.770Z,2.33
2019-01-16T10:03:34.999Z,2.03
2019-01-16T10:07:59.201Z,2.00
2019-01-16T10:12:29.320Z,2.63
2019-01-16T10:17:06.618Z,2.30
2019-01-16T10:21:47.193Z,2.77
2019-01-16T10:26:16.631Z,2.77
2019-01-16T10:30:51.177Z,2.40
2019-01-16T10:35:40.728Z,2.87
2019-01-16T10:40:10.449Z,3.40
2019-01-16T10:44:57.067Z,2.20
2019-01-16T10:49:26.582Z,2.60
2019-01-16T10:53:55.998Z,2.30
2019-01-16T10:58:36.571Z,3.03
2019-01-16T11:03:06.927Z,2.57
2019-01-16T11:07:34.104Z,2.90
2019-01-16T11:12:05.228Z,2.73
2019-01-16T11:16:36.479Z,2.97
2019-01-16T11:21:22.894Z,2.93
2019-01-16T11:25:52.410Z,3.40
2019-01-16T11:30:25.339Z,2.47
2019-01-16T11:34:54.925Z,2.23
2019-01-16T11:39:43.384Z,2.93
2019-01-16T11:44:14.539Z,2.10
2019-01-16T11:48:44.755Z,2.30
2019-01-16T11:53:16.233Z,1.70
2019-01-16T11:57:47.184Z,2.80
2019-01-16T12:02:21.409Z,3.20
2019-01-16T12:06:58.913Z,2.77
2019-01-16T12:11:40.206Z,2.80
2019-01-16T12:16:11.087Z,3.07
2019-01-16T12:20:45.382Z,2.87
2019-01-16T12:25:15.206Z,3.37
2019-01-16T12:29:36.836Z,2.67
2019-01-16T12:34:14.137Z,2.70
2019-01-16T12:38:57.170Z,2.83
2019-01-16T12:43:27.094Z,2.73
2019-01-16T12:47:57.328Z,2.83
2019-01-16T12:52:43.745Z,2.80
2019-01-16T12:57:13.461Z,3.30
2019-01-16T13:01:43.693Z,3.40
2019-01-16T13:06:13.621Z,4.40
2019-01-16T13:10:57.167Z,4.33
2019-01-16T13:15:21.082Z,4.73
2019-01-16T13:19:55.073Z,5.37
2019-01-16T13:24:18.155Z,5.67
2019-01-16T13:28:49.700Z,5.10
2019-01-16T13:33:39.084Z,4.30
2019-01-16T13:38:17.120Z,4.00
2019-01-16T13:42:38.252Z,3.90
2019-01-16T13:47:27.718Z,3.40
2019-01-16T13:51:59.061Z,3.20
2019-01-16T13:56:48.341Z,3.33
2019-01-16T14:01:18.166Z,2.97
2019-01-16T14:05:38.299Z,3.50
2019-01-16T14:10:24.673Z,2.13
2019-01-16T14:15:06.682Z,1.70
2019-01-16T14:19:47.051Z,1.73
2019-01-16T14:24:06.021Z,1.53
2019-01-16T14:28:45.881Z,1.27
2019-01-16T14:33:16.214Z,1.50
2019-01-16T14:37:59.352Z,1.67
2019-01-16T14:42:49.141Z,1.50
2019-01-16T14:47:20.603Z,1.20
2019-01-16T14:52:03.637Z,1.10
2019-01-16T14:56:48.034Z,1.30
2019-01-16T15:01:17.618Z,1.03
2019-01-16T15:05:55.431Z,1.63
2019-01-16T15:10:33.037Z,1.30
2019-01-16T15:15:09.925Z,1.63
2019-01-16T15:19:33.311Z,1.10
2019-01-16T15:24:05.486Z,1.33
2019-01-16T15:28:35.710Z,1.53
2019-01-16T15:33:05.738Z,2.00
2019-01-16T15:37:24.208Z,1.97
2019-01-16T15:42:07.228Z,2.20
2019-01-16T15:46:38.279Z,1.37
2019-01-16T15:51:08.307Z,1.87
2019-01-16T15:55:57.383Z,3.30
2019-01-16T16:00:33.250Z,1.60
2019-01-16T16:04:58.440Z,1.50
2019-01-16T16:09:29.924Z,1.90
2019-01-16T16:13:57.328Z,1.23
2019-01-16T16:18:28.444Z,0.70
2019-01-16T16:23:03.905Z,0.83
2019-01-16T16:27:34.033Z,1.30
2019-01-16T16:32:04.366Z,1.20
2019-01-16T16:36:38.287Z,1.53
2019-01-16T16:41:03.334Z,1.60
2019-01-16T16:45:33.324Z,2.50
2019-01-16T16:50:11.955Z,2.77
2019-01-16T16:54:46.283Z,2.50
2019-01-16T16:59:16.650Z,3.40
2019-01-16T17:04:02.727Z,3.80
2019-01-16T17:08:32.344Z,3.73
2019-01-16T17:13:00.014Z,3.87
2019-01-16T17:17:43.560Z,2.70
2019-01-16T17:22:15.023Z,2.80
2019-01-16T17:26:49.782Z,2.50
2019-01-16T17:31:25.460Z,4.07
2019-01-16T17:35:59.343Z,5.23
2019-01-16T17:40:36.231Z,5.00
2019-01-16T17:45:00.253Z,2.90
2019-01-16T17:49:30.486Z,2.50
2019-01-16T17:54:00.584Z,1.43
2019-01-16T17:58:40.952Z,2.00
2019-01-16T18:03:06.270Z,3.00
2019-01-16T18:07:40.704Z,3.53
2019-01-16T18:12:10.628Z,2.20
2019-01-16T18:16:39.134Z,1.70
2019-01-16T18:21:19.693Z,1.40
2019-01-16T18:26:01.123Z,1.17
2019-01-16T18:30:34.393Z,1.40
2019-01-16T18:35:08.244Z,1.40
2019-01-16T18:39:51.653Z,2.00
2019-01-16T18:44:14.490Z,1.87
2019-01-16T18:48:41.594Z,1.90
2019-01-16T18:53:11.604Z,2.20
2019-01-16T18:57:42.857Z,2.10
2019-01-16T19:02:22.204Z,1.97
2019-01-16T19:07:05.238Z,2.00
2019-01-16T19:11:42.128Z,2.50
2019-01-16T19:16:04.242Z,2.10
2019-01-16T19:20:39.623Z,2.33
2019-01-16T19:25:08.455Z,2.57
2019-01-16T19:29:35.198Z,2.43
2019-01-16T19:34:09.198Z,2.10
2019-01-16T19:38:29.189Z,1.73
2019-01-16T19:43:09.356Z,2.03
2019-01-16T19:47:37.431Z,2.80
2019-01-16T19:52:07.674Z,3.17
2019-01-16T19:56:41.692Z,4.27
2019-01-16T20:01:11.947Z,3.63
2019-01-16T20:05:55.268Z,3.93
2019-01-16T20:10:34.000Z,3.73
2019-01-16T20:15:05.051Z,2.47
2019-01-16T20:19:42.248Z,1.83
2019-01-16T20:24:16.373Z,1.67
2019-01-16T20:28:50.394Z,2.00
2019-01-16T20:33:23.814Z,2.47
2019-01-16T20:37:46.079Z,2.87
2019-01-16T20:42:16.076Z,4.70
2019-01-16T20:46:46.207Z,4.87
2019-01-16T20:51:17.258Z,5.27
2019-01-16T20:55:45.707Z,5.00
2019-01-16T21:00:14.959Z,3.73
2019-01-16T21:04:48.196Z,2.00
2019-01-16T21:09:17.678Z,1.90
2019-01-16T21:13:48.935Z,1.70
2019-01-16T21:18:18.657Z,1.97
2019-01-16T21:22:45.651Z,2.30
2019-01-16T21:27:19.636Z,2.90
2019-01-16T21:31:38.844Z,3.07
2019-01-16T21:36:08.432Z,2.43
2019-01-16T21:40:48.800Z,3.80
2019-01-16T21:45:18.348Z,4.20
2019-01-16T21:49:52.440Z,3.77
2019-01-16T21:54:30.146Z,4.30
2019-01-16T21:58:59.665Z,3.87
2019-01-16T22:03:19.863Z,3.30
2019-01-16T22:07:43.266Z,1.90
2019-01-16T22:12:13.159Z,2.43
2019-01-16T22:16:35.315Z,2.33
2019-01-16T22:21:05.230Z,2.30
2019-01-16T22:25:35.361Z,1.93
2019-01-16T22:30:18.702Z,2.70
2019-01-16T22:34:49.890Z,2.17
2019-01-16T22:39:20.909Z,2.10
2019-01-16T22:43:52.598Z,1.80
2019-01-16T22:48:21.770Z,1.40
2019-01-16T22:52:52.018Z,2.00
2019-01-16T22:57:14.742Z,1.80
2019-01-16T23:01:44.835Z,2.00
2019-01-16T23:06:14.729Z,2.00
2019-01-16T23:10:48.752Z,2.33
2019-01-16T23:15:24.747Z,2.30
2019-01-16T23:19:56.079Z,2.20
2019-01-16T23:24:25.902Z,1.90
2019-01-16T23:29:00.333Z,2.27
2019-01-16T23:33:37.851Z,2.07
2019-01-16T23:38:14.932Z,2.03
2019-01-16T23:42:58.591Z,1.90
2019-01-16T23:47:42.228Z,1.70
2019-01-16T23:52:22.186Z,1.70
2019-01-16T23:56:49.785Z,1.87
